Flight Track Log - Related Links

Times and Time Zones

All times are in EDT time to prevent confusion due to time zone crossing. See the UAL1206 flight status page for this flight to view local times or setup timezone preferences in your user account.

Time Position Orientation Groundspeed Altitude Reporting Facility
EDT Latitude Longitude Course Direction KTS MPH feet Rate Location/Type
Sat 11:41:57 AM 33.9340 -118.4370 262° West 179 206 1,300  Level FlightAware ADS-B
Sat 11:42:22 AM 33.9230 -118.4640 244° Southwest 220 253 2,000 2,250 Climbing FlightAware ADS-B
Sat 11:42:37 AM 33.9130 -118.4800 233° Southwest 228 262 2,800 2,933 Climbing FlightAware ADS-B
Sat 11:43:07 AM 33.8920 -118.5100 230° Southwest 252 290 4,200 2,727 Climbing FlightAware ADS-B
Sat 11:43:32 AM 33.8620 -118.5240 201° Southwest 283 326 5,300 2,000 Climbing FlightAware ADS-B
Sat 11:43:52 AM 33.8490 -118.5240 180° South 288 331 5,700 3,067 Climbing FlightAware ADS-B
Sat 11:44:17 AM 33.8010 -118.5220 178° South 301 346 7,600 3,818 Climbing FlightAware ADS-B
Sat 11:44:47 AM 33.7640 -118.5210 179° South 302 348 9,200 2,829 Climbing FlightAware ADS-B
Sat 11:45:27 AM 33.7030 -118.5150 175° South 336 387 10,900 2,400 Climbing FlightAware ADS-B
Sat 11:45:37 AM 33.6890 -118.5060 152° Southeast 349 402 11,200 2,160 Climbing FlightAware ADS-B
Sat 11:45:52 AM 33.6710 -118.4830 133° Southeast 359 413 11,800 2,500 Climbing FlightAware ADS-B
Sat 11:46:37 AM 33.6220 -118.4130 130° Southeast 379 436 13,700 2,612 Climbing FlightAware ADS-B
Sat 11:47:17 AM 33.5760 -118.3480 130° Southeast 387 445 15,500 2,400 Climbing FlightAware ADS-B
Sat 11:48:02 AM 33.5200 -118.2720 131° Southeast 406 467 17,100 2,259 Climbing FlightAware ADS-B
Sat 11:48:42 AM 33.4710 -118.2040 131° Southeast 413 475 18,700 2,475 Climbing FlightAware ADS-B
Sat 11:49:22 AM 33.4190 -118.1330 131° Southeast 419 482 20,400 2,259 Climbing FlightAware ADS-B
Sat 11:50:07 AM 33.3640 -118.0570 131° Southeast 430 495 21,900 2,047 Climbing FlightAware ADS-B
Sat 11:50:47 AM 33.3100 -117.9840 132° Southeast 437 503 23,300 2,118 Climbing FlightAware ADS-B
Sat 11:51:32 AM 33.2470 -117.8980 131° Southeast 445 512 24,900 1,976 Climbing FlightAware ADS-B
Sat 11:52:12 AM 33.1940 -117.8260 131° Southeast 452 520 26,100 1,624 Climbing FlightAware ADS-B
Sat 11:52:57 AM 33.1310 -117.7420 132° Southeast 462 532 27,200 1,482 Climbing FlightAware ADS-B
Sat 11:53:37 AM 33.0750 -117.6650 131° Southeast 470 541 28,200 1,500 Climbing FlightAware ADS-B
Sat 11:54:17 AM 33.0160 -117.5860 132° Southeast 476 548 29,200 1,482 Climbing FlightAware ADS-B
Sat 11:55:02 AM 32.9500 -117.4980 132° Southeast 483 556 30,300 1,341 Climbing FlightAware ADS-B
Sat 11:55:42 AM 32.8900 -117.4170 131° Southeast 490 564 31,100 1,125 Climbing FlightAware ADS-B
Sat 11:56:22 AM 32.8300 -117.3370 132° Southeast 496 571 31,800 1,271 Climbing FlightAware ADS-B
Sat 11:57:07 AM 32.7620 -117.2460 132° Southeast 497 572 32,900 1,341 Climbing FlightAware ADS-B
Sat 11:57:47 AM 32.7010 -117.1650 132° Southeast 499 574 33,700 1,129 Climbing FlightAware ADS-B
Sat 11:58:32 AM 32.6320 -117.0740 132° Southeast 502 578 34,500 1,059 Climbing FlightAware ADS-B
Sat 11:59:12 AM 32.5680 -116.9890 132° Southeast 504 580 35,200 1,059 Climbing FlightAware ADS-B
Sat 11:59:57 AM 32.4900 -116.9040 137° Southeast 507 583 36,000 988 Climbing FlightAware ADS-B
Sat 12:00:37 PM 32.4230 -116.8400 141° Southeast 506 582 36,600 750 Climbing FlightAware ADS-B
Sat 12:01:17 PM 32.3450 -116.7650 141° Southeast 506 582 37,000 300 Climbing FlightAware ADS-B
Sat 12:01:57 PM 32.2720 -116.6950 141° Southeast 505 581 37,000  Level FlightAware ADS-B
Sat 12:02:42 PM 32.1970 -116.6230 141° Southeast 503 579 37,000  Level FlightAware ADS-B
Sat 12:03:17 PM 32.1370 -116.5660 141° Southeast 503 579 37,000  Level FlightAware ADS-B
Sat 12:04:07 PM 32.0600 -116.4920 141° Southeast 503 579 37,000  Level FlightAware ADS-B
Sat 12:04:47 PM 31.9980 -116.4340 142° Southeast 503 579 37,000  Level FlightAware ADS-B
Sat 12:05:27 PM 31.9370 -116.3750 141° Southeast 503 579 37,000  Level FlightAware ADS-B
Sat 12:06:07 PM 31.8750 -116.3160 141° Southeast 503 579 37,000  Level FlightAware ADS-B
Sat 12:06:57 PM 31.7980 -116.2430 141° Southeast 503 579 37,000  Level FlightAware ADS-B
Sat 12:07:37 PM 31.7370 -116.1840 141° Southeast 503 579 37,000  Level FlightAware ADS-B
Sat 12:08:17 PM 31.6750 -116.1260 141° Southeast 503 579 37,000  Level FlightAware ADS-B
Sat 12:08:57 PM 31.6140 -116.0670 141° Southeast 503 579 37,000  Level FlightAware ADS-B
Sat 12:09:37 PM 31.5520 -116.0090 141° Southeast 503 579 37,000  Level FlightAware ADS-B
Sat 12:10:27 PM 31.4750 -115.9360 141° Southeast 503 579 37,000  Level FlightAware ADS-B
Sat 12:11:07 PM 31.4140 -115.8780 141° Southeast 503 579 37,000  Level FlightAware ADS-B
Sat 12:11:47 PM 31.3520 -115.8190 141° Southeast 503 579 37,000  Level FlightAware ADS-B
Sat 12:12:27 PM 31.2910 -115.7610 141° Southeast 503 579 37,000  Level FlightAware ADS-B
Sat 12:15:00 PM 31.0201 -115.5336 144° Southeast  Level FlightAware Approximate
Sat 12:16:00 PM 30.9138 -115.4448 144° Southeast  Level FlightAware Approximate
Sat 12:17:00 PM 30.8074 -115.3562 144° Southeast  Level FlightAware Approximate
Sat 12:18:00 PM 30.7051 -115.2613 141° Southeast  Level FlightAware Approximate
Sat 12:19:00 PM 30.6031 -115.1661 141° Southeast  Level FlightAware Approximate
Sat 12:20:00 PM 30.5011 -115.0711 141° Southeast  Level FlightAware Approximate
Sat 12:21:00 PM 30.3989 -114.9764 141° Southeast  Level FlightAware Approximate
Sat 12:22:00 PM 30.2967 -114.8818 141° Southeast  Level FlightAware Approximate
Sat 12:23:00 PM 30.1945 -114.7875 141° Southeast  Level FlightAware Approximate
Sat 12:24:00 PM 30.0921 -114.6933 141° Southeast  Level FlightAware Approximate
Sat 12:25:00 PM 29.9897 -114.5993 142° Southeast  Level FlightAware Approximate
Sat 12:26:00 PM 29.8873 -114.5055 142° Southeast  Level FlightAware Approximate
Sat 12:26:22 PM 29.6290 -114.2590 142° Southeast 484 557 37,000  Level FlightAware ADS-B
Sat 12:27:02 PM 29.5600 -114.1980 142° Southeast 481 554 37,000  Level FlightAware ADS-B
Sat 12:27:52 PM 29.4820 -114.1280 142° Southeast 481 554 37,000  Level FlightAware ADS-B
Sat 12:28:32 PM 29.4230 -114.0750 142° Southeast 481 554 37,000  Level FlightAware ADS-B
Sat 12:29:17 PM 29.3250 -113.9900 143° Southeast 471 542 37,000  Level FlightAware ADS-B
Sat 12:29:52 PM 29.2710 -113.9410 142° Southeast 471 542 37,000  Level FlightAware ADS-B
Sat 12:30:42 PM 29.1980 -113.8760 142° Southeast 471 542 37,000  Level FlightAware ADS-B
Sat 12:31:17 PM 29.1250 -113.8120 143° Southeast 466 536 37,000  Level FlightAware ADS-B
Sat 12:31:57 PM 29.0670 -113.7610 142° Southeast 466 536 37,000  Level FlightAware ADS-B
Sat 12:32:47 PM 28.9650 -113.6740 143° Southeast 463 533 37,000  Level FlightAware ADS-B
Sat 12:33:27 PM 28.9050 -113.6200 142° Southeast 464 534 37,000  Level FlightAware ADS-B
Sat 12:34:12 PM 28.8250 -113.5510 143° Southeast 463 533 37,000  Level FlightAware ADS-B
Sat 12:34:52 PM 28.7550 -113.4910 143° Southeast 465 535 37,000  Level FlightAware ADS-B
Sat 12:35:47 PM 28.6680 -113.4130 142° Southeast 466 536 37,000  Level FlightAware ADS-B
Sat 12:36:27 PM 28.6100 -113.3620 142° Southeast 466 536 37,000  Level FlightAware ADS-B
Sat 12:37:12 PM 28.5140 -113.2810 143° Southeast 465 535 37,000  Level FlightAware ADS-B
Sat 12:37:47 PM 28.4540 -113.2300 143° Southeast 463 533 37,000  Level FlightAware ADS-B
Sat 12:38:37 PM 28.3690 -113.1560 143° Southeast 462 532 37,000  Level FlightAware ADS-B
Sat 12:39:22 PM 28.2910 -113.0890 143° Southeast 459 528 37,000  Level FlightAware ADS-B
Sat 12:40:02 PM 28.2250 -113.0320 143° Southeast 457 526 37,000  Level FlightAware ADS-B
Sat 12:40:42 PM 28.1570 -112.9740 143° Southeast 455 524 37,000  Level FlightAware ADS-B
Sat 12:41:22 PM 28.0950 -112.9200 142° Southeast 453 521 37,000  Level FlightAware ADS-B
Sat 12:42:07 PM 28.0200 -112.8560 143° Southeast 453 521 37,000  Level FlightAware ADS-B
Sat 12:42:52 PM 27.9370 -112.7860 143° Southeast 451 519 37,000  Level FlightAware ADS-B
Sat 12:43:32 PM 27.8710 -112.7290 143° Southeast 451 519 37,000  Level FlightAware ADS-B
Sat 12:44:12 PM 27.8070 -112.6750 143° Southeast 451 519 37,000  Level FlightAware ADS-B
Sat 12:44:52 PM 27.7420 -112.6200 143° Southeast 451 519 37,000  Level FlightAware ADS-B
Sat 12:45:37 PM 27.6640 -112.5540 143° Southeast 451 519 37,000  Level FlightAware ADS-B
Sat 12:46:17 PM 27.5980 -112.4980 143° Southeast 451 519 37,000  Level FlightAware ADS-B
Sat 12:47:02 PM 27.5210 -112.4330 143° Southeast 452 520 37,000  Level FlightAware ADS-B
Sat 12:47:42 PM 27.4530 -112.3760 143° Southeast 455 524 37,000  Level FlightAware ADS-B
Sat 12:48:22 PM 27.3880 -112.3210 143° Southeast 455 524 37,000  Level FlightAware ADS-B
Sat 12:49:07 PM 27.3110 -112.2580 144° Southeast 454 522 37,000  Level FlightAware ADS-B
Sat 12:49:47 PM 27.2380 -112.2080 149° Southeast 454 522 37,000  Level FlightAware ADS-B
Sat 12:50:32 PM 27.1590 -112.1530 148° Southeast 454 522 37,000  Level FlightAware ADS-B
Sat 12:51:12 PM 27.0840 -112.1020 149° Southeast 453 521 37,000  Level FlightAware ADS-B
Sat 12:51:57 PM 27.0060 -112.0480 148° Southeast 452 520 37,000  Level FlightAware ADS-B
Sat 12:52:32 PM 26.9430 -112.0050 149° Southeast 452 520 37,000  Level FlightAware ADS-B
Sat 12:53:12 PM 26.8750 -111.9570 148° Southeast 451 519 37,000  Level FlightAware ADS-B
Sat 12:54:17 PM 26.7640 -111.8810 149° Southeast 449 517 37,000  Level FlightAware ADS-B
Sat 12:54:57 PM 26.6880 -111.8300 149° Southeast 449 517 37,000  Level FlightAware ADS-B
Sat 12:55:42 PM 26.6050 -111.7730 148° Southeast 448 516 37,000  Level FlightAware ADS-B
Sat 12:56:22 PM 26.5390 -111.7270 148° Southeast 449 517 37,000  Level FlightAware ADS-B
Sat 12:57:02 PM 26.4790 -111.6860 149° Southeast 449 517 37,000  Level FlightAware ADS-B
Sat 12:57:42 PM 26.4190 -111.6440 148° Southeast 449 517 37,000  Level FlightAware ADS-B
Sat 12:58:22 PM 26.3600 -111.6020 147° Southeast 449 517 37,000  Level FlightAware ADS-B
Sat 12:59:12 PM 26.2850 -111.5500 148° Southeast 449 517 37,000  Level FlightAware ADS-B
Sat 12:59:52 PM 26.2250 -111.5080 148° Southeast 449 517 37,000  Level FlightAware ADS-B
Sat 01:00:32 PM 26.1650 -111.4660 148° Southeast 449 517 37,000  Level FlightAware ADS-B
Sat 01:01:12 PM 26.1050 -111.4250 148° Southeast 449 517 37,000  Level FlightAware ADS-B
Sat 01:01:52 PM 26.0450 -111.3830 148° Southeast 449 517 37,000  Level FlightAware ADS-B
Sat 01:02:42 PM 25.9700 -111.3310 148° Southeast 449 517 37,000  Level FlightAware ADS-B
Sat 01:03:22 PM 25.9100 -111.2890 148° Southeast 449 517 37,000  Level FlightAware ADS-B
Sat 01:04:02 PM 25.8500 -111.2480 148° Southeast 449 517 37,000  Level FlightAware ADS-B
Sat 01:04:42 PM 25.7910 -111.2060 147° Southeast 449 517 37,000  Level FlightAware ADS-B
Sat 01:05:22 PM 25.7310 -111.1650 148° Southeast 449 517 37,000  Level FlightAware ADS-B
Sat 01:08:00 PM 25.5475 -110.8458 122° Southeast  Level FlightAware Approximate
Sat 01:08:47 PM 25.2900 -110.7310 122° Southeast 447 514 37,000  Level FlightAware ADS-B
Sat 01:09:27 PM 25.2230 -110.6720 141° Southeast 446 513 37,000  Level FlightAware ADS-B
Sat 01:10:07 PM 25.1600 -110.6170 142° Southeast 446 513 37,000  Level FlightAware ADS-B
Sat 01:10:52 PM 25.0850 -110.5510 141° Southeast 446 513 37,000  Level FlightAware ADS-B
Sat 01:11:32 PM 25.0200 -110.4940 142° Southeast 446 513 37,000 -225 Level FlightAware ADS-B
Sat 01:12:12 PM 24.9560 -110.4380 142° Southeast 445 512 36,700 -706 Descending FlightAware ADS-B
Sat 01:12:57 PM 24.8860 -110.3760 141° Southeast 433 498 36,000 -988 Descending FlightAware ADS-B
Sat 01:13:37 PM 24.8250 -110.3230 142° Southeast 431 496 35,300 -975 Descending FlightAware ADS-B
Sat 01:14:17 PM 24.7590 -110.2650 141° Southeast 438 504 34,700 -1,482 Descending FlightAware ADS-B
Sat 01:15:02 PM 24.6880 -110.2030 142° Southeast 442 509 33,200 -2,329 Descending FlightAware ADS-B
Sat 01:15:42 PM 24.6250 -110.1490 142° Southeast 446 513 31,400 -2,682 Descending FlightAware ADS-B
Sat 01:16:27 PM 24.5490 -110.0830 142° Southeast 446 513 29,400 -2,471 Descending FlightAware ADS-B
Sat 01:17:07 PM 24.4870 -110.0280 141° Southeast 437 503 27,900 -2,259 Descending FlightAware ADS-B
Sat 01:17:52 PM 24.4150 -109.9670 142° Southeast 427 491 26,200 -2,259 Descending FlightAware ADS-B
Sat 01:18:32 PM 24.3520 -109.9120 141° Southeast 419 482 24,700 -2,175 Descending FlightAware ADS-B
Sat 01:19:12 PM 24.2930 -109.8610 142° Southeast 410 472 23,300 -2,118 Descending FlightAware ADS-B
Sat 01:19:57 PM 24.2270 -109.8040 142° Southeast 400 460 21,700 -2,047 Descending FlightAware ADS-B
Sat 01:20:37 PM 24.1700 -109.7550 142° Southeast 391 450 20,400 -2,047 Descending FlightAware ADS-B
Sat 01:21:22 PM 24.1050 -109.6990 142° Southeast 381 438 18,800 -2,025 Descending FlightAware ADS-B
Sat 01:21:57 PM 24.0600 -109.6600 142° Southeast 378 435 17,700 -825 Descending FlightAware ADS-B
Sat 01:22:42 PM 24.0060 -109.6120 141° Southeast 378 435 17,700  Level FlightAware ADS-B
Sat 01:23:22 PM 23.9600 -109.5710 141° Southeast 378 435 17,700 -3,106 Level FlightAware ADS-B
Sat 01:24:07 PM 23.8750 -109.5370 160° South 337 388 13,300 -3,133 Descending FlightAware ADS-B
Sat 01:24:52 PM 23.8140 -109.5530 193° South 334 384 13,000 -212 Descending FlightAware ADS-B
Sat 01:25:32 PM 23.7630 -109.5660 193° South 334 384 13,000  Level FlightAware ADS-B
Sat 01:26:12 PM 23.7120 -109.5780 192° South 334 384 13,000  Level FlightAware ADS-B
Sat 01:28:00 PM 23.4831 -109.6301 190° South  Level FlightAware Approximate
Sat 01:29:00 PM 23.3564 -109.6590 197° South  Level FlightAware Approximate
Sat 01:30:00 PM 23.2323 -109.6937 200° South  Level FlightAware Approximate
Sat 01:31:00 PM 23.1518 -109.7210 190° South  Level Estimated
Sat 01:32:00 PM 23.1518 -109.7210 190° South  Level Estimated
Sat 01:33:00 PM 23.1518 -109.7210 190° South  Level Estimated
Sat 01:34:00 PM 23.1518 -109.7210 190° South  Level Estimated
Sat 01:35:00 PM 23.1518 -109.7210 190° South  Level Estimated
Sat 01:36:00 PM 23.1518 -109.7210 190° South  Level Estimated
Sat 01:37:00 PM 23.1518 -109.7210 190° South  Level Estimated

Login

Don't have an account? Register now (free) for customized features, flight alerts, and more!